Saint Marys, Canada
Current Conditions -  °F | °C
As of 2:00 AM on Saturday 25 Oct 2014 (Local Time) from CYXU Reporting Station
Broken Clouds Broken Clouds  
Wind Chill: 50°   Ceiling: 3000
Heat Index: 50°   Visibility: 15mi
Dew Point: 46°   Wind: 8mph
Humidity: 87%   Direction: 260°W
Pressure: 29.91"   Gusts: NA
Location:  43.25°N, 81.13°W
Report Text: CYXU 250600Z 26007KT 15SM BKN030 10/08 A2991 RMK SC6 SLP132
Loading
Personal Weather Stations






























Interactive Weather Map
Tropical Storm Tracking
New forecast layout! Learn more

10-Day Weather Forecast

Advertisements
Track Severe Weather on mobile